Time;durP1;ratioP1;P1;durP2;ratioP2;P2;SDS_P1;SDS_P2;PMS_P1;PMS_P2;Temp;Humidity;BMP_temperature;BMP_pressure;BME280_temperature;BME280_humidity;BME280_pressure;Samples;Min_cycle;Max_cycle;Signal;HPM_P1;HPM_P2
2021/07/01 00:04:25;;;;;;;12.20;10.43;;;;;;;15.00;100.00;101821.22;1970774;72;33150;-71
2021/07/01 00:09:50;;;;;;;11.27;10.17;;;;;;;14.96;100.00;101822.38;1970572;72;33167;-71
2021/07/01 00:15:17;;;;;;;12.07;10.63;;;;;;;14.89;100.00;101821.84;1970833;72;33369;-70
2021/07/01 00:20:42;;;;;;;13.97;11.73;;;;;;;14.76;100.00;101823.89;1970500;72;33045;-71
2021/07/01 00:26:06;;;;;;;12.60;11.07;;;;;;;14.74;100.00;101828.95;1970569;72;32930;-71
2021/07/01 00:31:31;;;;;;;13.00;11.57;;;;;;;14.65;100.00;101829.84;1970618;73;32934;-70
2021/07/01 00:36:55;;;;;;;13.33;11.70;;;;;;;14.78;100.00;101830.05;1970820;72;32966;-71
2021/07/01 00:42:19;;;;;;;12.50;11.20;;;;;;;14.80;100.00;101829.77;1970835;73;33008;-70
2021/07/01 00:47:43;;;;;;;14.33;12.83;;;;;;;14.80;100.00;101836.20;1970496;72;33034;-70
2021/07/01 00:53:15;;;;;;;12.63;11.33;;;;;;;14.88;100.00;101833.34;1970643;72;33003;-72
2021/07/01 00:58:41;;;;;;;16.00;13.13;;;;;;;14.90;100.00;101832.47;1970687;73;33417;-71
2021/07/01 01:04:06;;;;;;;16.57;13.30;;;;;;;14.95;100.00;101826.84;1970748;73;33013;-71
2021/07/01 01:09:31;;;;;;;15.33;12.87;;;;;;;14.98;100.00;101807.52;1970619;72;32953;-71
2021/07/01 01:14:55;;;;;;;18.37;14.53;;;;;;;15.11;100.00;101813.01;1970759;72;33336;-70
2021/07/01 01:20:40;;;;;;;14.20;12.50;;;;;;;15.08;100.00;101821.99;1934628;74;33000;-70
2021/07/01 01:26:24;;;;;;;14.60;12.10;;;;;;;14.71;100.00;101828.70;1946487;74;33045;-70
2021/07/01 01:31:50;;;;;;;14.50;12.97;;;;;;;14.56;100.00;101816.47;1970780;72;33608;-72
2021/07/01 01:37:34;;;;;;;17.00;13.53;;;;;;;14.46;100.00;101829.09;1946199;74;33060;-72
2021/07/01 01:43:00;;;;;;;17.20;12.53;;;;;;;14.40;100.00;101830.82;1970845;73;33595;-71
2021/07/01 01:48:24;;;;;;;15.33;12.30;;;;;;;14.33;100.00;101842.86;1970791;72;33076;-71
2021/07/01 01:53:48;;;;;;;15.57;13.97;;;;;;;14.20;100.00;101842.91;1970843;72;32975;-71
2021/07/01 01:59:15;;;;;;;20.50;15.50;;;;;;;14.23;100.00;101844.28;1970580;72;33005;-71
2021/07/01 02:04:40;;;;;;;16.53;13.73;;;;;;;14.17;100.00;101846.25;1970644;73;33026;-71
2021/07/01 02:10:08;;;;;;;16.83;14.57;;;;;;;14.25;100.00;101838.67;1970626;72;33069;-71
2021/07/01 02:15:32;;;;;;;18.90;15.00;;;;;;;14.25;100.00;101842.86;1970619;73;32917;-71
2021/07/01 02:20:57;;;;;;;19.37;14.47;;;;;;;14.34;100.00;101833.32;1970581;73;33103;-71
2021/07/01 02:26:21;;;;;;;19.90;14.47;;;;;;;14.33;100.00;101840.90;1970764;73;33015;-72
2021/07/01 02:31:46;;;;;;;8.90;8.07;;;;;;;14.03;100.00;101837.63;1970837;72;33676;-71
2021/07/01 02:37:12;;;;;;;8.30;7.43;;;;;;;13.69;100.00;101845.81;1970947;72;32888;-72
2021/07/01 02:42:36;;;;;;;7.97;7.17;;;;;;;13.86;100.00;101839.91;1970626;72;33113;-71
2021/07/01 02:48:02;;;;;;;8.57;7.53;;;;;;;13.96;100.00;101842.69;1970668;73;32980;-71
2021/07/01 02:53:26;;;;;;;15.80;12.80;;;;;;;14.16;100.00;101846.00;1970907;72;33285;-71
2021/07/01 02:58:51;;;;;;;9.37;8.33;;;;;;;14.26;100.00;101838.11;1970913;72;33160;-71
2021/07/01 03:04:16;;;;;;;16.50;12.83;;;;;;;14.45;100.00;101836.39;1970606;72;33083;-71
2021/07/01 03:09:41;;;;;;;18.77;13.77;;;;;;;14.36;100.00;101838.11;1970838;73;33007;-71
2021/07/01 03:15:06;;;;;;;20.73;15.50;;;;;;;14.47;100.00;101820.16;1970699;72;32940;-71
2021/07/01 03:20:33;;;;;;;21.50;16.73;;;;;;;14.46;100.00;101818.50;1967407;71;33025;-71
2021/07/01 03:25:57;;;;;;;20.47;15.90;;;;;;;14.49;100.00;101822.95;1970666;73;33186;-72
2021/07/01 03:31:21;;;;;;;20.13;15.90;;;;;;;14.61;100.00;101814.77;1970649;73;33168;-71
2021/07/01 03:36:47;;;;;;;19.10;16.47;;;;;;;14.49;100.00;101808.13;1970665;72;33102;-71
2021/07/01 03:42:12;;;;;;;20.53;15.83;;;;;;;14.41;100.00;101816.57;1970635;73;33027;-71
2021/07/01 03:47:36;;;;;;;20.47;15.50;;;;;;;14.40;100.00;101823.84;1970714;73;33517;-72
2021/07/01 03:53:03;;;;;;;20.37;15.60;;;;;;;14.27;100.00;101818.83;1970803;73;33406;-70
2021/07/01 03:58:27;;;;;;;19.47;15.80;;;;;;;14.25;100.00;101820.50;1970693;72;33045;-71
2021/07/01 04:03:52;;;;;;;18.00;14.83;;;;;;;14.12;100.00;101826.14;1970586;73;32959;-72
2021/07/01 04:09:16;;;;;;;19.20;15.57;;;;;;;14.03;100.00;101822.27;1970552;73;33113;-72
2021/07/01 04:14:41;;;;;;;17.60;15.10;;;;;;;13.99;100.00;101829.55;1970799;73;32932;-70
2021/07/01 04:20:12;;;;;;;18.40;15.43;;;;;;;14.05;100.00;101830.37;1967556;72;33574;-72
2021/07/01 04:25:37;;;;;;;20.70;14.53;;;;;;;14.02;100.00;101827.60;1970947;72;32933;-71
2021/07/01 04:31:02;;;;;;;19.77;15.27;;;;;;;13.98;100.00;101832.08;1970875;72;33006;-72
2021/07/01 04:36:26;;;;;;;20.17;16.20;;;;;;;13.91;100.00;101827.34;1970874;72;33675;-71
2021/07/01 04:41:51;;;;;;;19.63;15.83;;;;;;;14.01;100.00;101826.48;1970790;73;33000;-72
2021/07/01 04:47:15;;;;;;;19.90;15.80;;;;;;;14.03;100.00;101828.44;1970563;72;32970;-72
2021/07/01 04:52:39;;;;;;;18.90;14.67;;;;;;;14.02;100.00;101830.39;1970429;72;33567;-71
2021/07/01 04:58:05;;;;;;;19.67;15.83;;;;;;;13.99;100.00;101834.32;1970374;72;32910;-70
2021/07/01 05:03:29;;;;;;;20.90;16.70;;;;;;;14.00;100.00;101839.60;1970640;73;32965;-70
2021/07/01 05:08:53;;;;;;;18.20;15.83;;;;;;;13.93;100.00;101836.84;1970990;72;32924;-70
2021/07/01 05:14:18;;;;;;;20.73;15.60;;;;;;;14.03;100.00;101841.82;1970586;72;33003;-70
2021/07/01 05:19:42;;;;;;;18.60;15.30;;;;;;;13.96;100.00;101832.91;1970809;73;33485;-70
2021/07/01 05:25:09;;;;;;;21.30;16.27;;;;;;;14.14;100.00;101839.84;1970890;73;33461;-70
2021/07/01 05:30:33;;;;;;;18.80;14.97;;;;;;;14.26;100.00;101840.34;1970662;73;32929;-70
2021/07/01 05:35:58;;;;;;;20.93;16.33;;;;;;;14.50;100.00;101823.79;1970844;73;33424;-70
2021/07/01 05:41:23;;;;;;;20.47;15.83;;;;;;;14.68;100.00;101837.09;1971048;72;32961;-71
2021/07/01 05:46:47;;;;;;;17.87;14.77;;;;;;;14.85;100.00;101833.91;1970789;72;33517;-71
2021/07/01 05:52:14;;;;;;;17.63;14.23;;;;;;;14.89;100.00;101838.62;1970969;72;33395;-71
2021/07/01 05:57:38;;;;;;;18.63;14.93;;;;;;;15.09;100.00;101841.02;1944526;74;33581;-70
2021/07/01 06:03:05;;;;;;;21.60;15.20;;;;;;;14.99;100.00;101844.73;1970723;72;32968;-70
2021/07/01 06:08:34;;;;;;;20.23;15.03;;;;;;;15.09;100.00;101846.63;1970533;73;32967;-70
2021/07/01 06:14:00;;;;;;;17.57;13.70;;;;;;;15.14;100.00;101836.80;1970896;72;32943;-71
2021/07/01 06:19:27;;;;;;;16.37;13.67;;;;;;;15.37;100.00;101845.26;1970751;72;33024;-70
2021/07/01 06:24:54;;;;;;;17.87;13.73;;;;;;;15.44;100.00;101842.98;1970727;72;32988;-70
2021/07/01 06:30:21;;;;;;;17.90;14.37;;;;;;;15.63;100.00;101838.05;1970579;72;33010;-71
2021/07/01 06:35:51;;;;;;;16.07;14.30;;;;;;;15.82;100.00;101835.62;1970229;72;33108;-71
2021/07/01 06:41:18;;;;;;;13.10;11.57;;;;;;;15.75;100.00;101835.12;1970519;72;33048;-70
2021/07/01 06:46:43;;;;;;;12.87;11.47;;;;;;;15.82;100.00;101824.42;1970604;73;33050;-71
2021/07/01 06:52:12;;;;;;;17.97;13.07;;;;;;;15.92;100.00;101830.45;1970773;73;34230;-71
2021/07/01 06:57:37;;;;;;;16.93;12.93;;;;;;;16.11;100.00;101827.16;1970249;73;33026;-70
2021/07/01 07:03:05;;;;;;;12.30;11.00;;;;;;;16.16;100.00;101819.26;1970443;73;33086;-72
2021/07/01 07:08:31;;;;;;;13.97;12.47;;;;;;;16.15;100.00;101835.80;1970778;72;33077;-72
2021/07/01 07:13:57;;;;;;;13.97;12.27;;;;;;;16.35;100.00;101830.77;1970521;73;32991;-72
2021/07/01 07:19:24;;;;;;;15.47;12.67;;;;;;;16.48;100.00;101829.77;1970419;72;33016;-71
2021/07/01 07:27:38;;;;;;;14.57;12.67;;;;;;;16.62;100.00;101830.17;1975264;72;33387;-71
2021/07/01 07:30:10;;;;;;;15.17;12.43;;;;;;;16.61;100.00;101833.27;1879819;76;26195;-72
2021/07/01 07:32:41;;;;;;;15.17;12.33;;;;;;;16.59;100.00;101836.39;1950243;73;26249;-73
2021/07/01 07:35:13;;;;;;;15.33;12.50;;;;;;;16.75;100.00;101832.79;1950411;73;26503;-72
2021/07/01 07:37:44;;;;;;;13.90;12.33;;;;;;;16.97;100.00;101830.78;1950376;73;26634;-74
2021/07/01 07:40:15;;;;;;;13.63;11.77;;;;;;;17.23;100.00;101822.22;1950323;73;26197;-73
2021/07/01 07:42:46;;;;;;;14.17;12.17;;;;;;;17.24;100.00;101821.89;1950206;73;26288;-71
2021/07/01 07:45:17;;;;;;;14.30;11.60;;;;;;;17.58;100.00;101820.80;1950187;73;26241;-72
2021/07/01 07:47:47;;;;;;;14.07;12.53;;;;;;;17.71;100.00;101828.42;1950216;73;26192;-75
2021/07/01 07:50:19;;;;;;;12.70;11.20;;;;;;;17.97;100.00;101832.39;1950576;73;26234;-72
2021/07/01 07:52:52;;;;;;;11.47;10.33;;;;;;;17.97;100.00;101832.39;1950502;73;26259;-75
2021/07/01 07:55:24;;;;;;;13.93;11.40;;;;;;;18.25;100.00;101831.00;1950319;73;24207;-72
2021/07/01 07:57:57;;;;;;;12.63;11.33;;;;;;;18.25;100.00;101831.00;1950530;73;24195;-74
2021/07/01 08:00:28;;;;;;;14.23;12.77;;;;;;;18.01;100.00;101830.63;1950489;73;24128;-75
2021/07/01 08:05:57;;;;;;;13.57;11.93;;;;;;;18.22;100.00;101832.47;1970760;73;33442;-73
2021/07/01 08:11:25;;;;;;;14.33;11.90;;;;;;;18.58;100.00;101833.96;1970759;72;33426;-75
2021/07/01 08:16:50;;;;;;;12.37;11.13;;;;;;;18.60;100.00;101821.27;1970544;72;31611;-74
2021/07/01 08:22:15;;;;;;;15.63;13.90;;;;;;;18.68;100.00;101823.89;1942989;73;31588;-73
2021/07/01 08:27:43;;;;;;;14.53;11.33;;;;;;;19.00;100.00;101816.64;1970451;73;31365;-73
2021/07/01 08:33:11;;;;;;;13.93;12.43;;;;;;;19.35;100.00;101816.34;1970629;72;31043;-75
2021/07/01 08:38:38;;;;;;;13.47;10.00;;;;;;;19.44;100.00;101811.62;1970412;72;33522;-72
2021/07/01 08:44:10;;;;;;;13.13;11.73;;;;;;;19.88;100.00;101820.59;1970395;72;31126;-72
2021/07/01 08:49:49;;;;;;;15.97;12.37;;;;;;;19.58;100.00;101810.72;1970645;72;31136;-72
2021/07/01 08:55:19;;;;;;;14.27;12.20;;;;;;;19.68;100.00;101809.05;1970479;72;31018;-75
2021/07/01 09:00:46;;;;;;;14.23;12.50;;;;;;;20.13;100.00;101804.09;1970322;73;30943;-72
2021/07/01 09:06:15;;;;;;;10.40;9.37;;;;;;;20.26;100.00;101801.73;1970459;72;31691;-73
2021/07/01 09:11:42;;;;;;;10.60;9.60;;;;;;;20.36;100.00;101802.87;1970293;72;31020;-74
2021/07/01 09:17:11;;;;;;;11.80;9.43;;;;;;;20.54;100.00;101807.98;1970504;72;31861;-74
2021/07/01 09:22:36;;;;;;;12.03;10.30;;;;;;;20.32;100.00;101798.44;1935780;73;31105;-74
2021/07/01 09:28:02;;;;;;;11.83;10.43;;;;;;;20.31;100.00;101799.63;1970544;72;31106;-74
2021/07/01 09:33:28;;;;;;;12.50;11.30;;;;;;;20.45;100.00;101800.91;1970550;73;31469;-73
2021/07/01 09:38:56;;;;;;;13.43;12.07;;;;;;;20.41;100.00;101804.11;1970568;72;31465;-73
2021/07/01 09:44:23;;;;;;;12.47;10.93;;;;;;;20.31;100.00;101792.57;1970713;72;31530;-74
2021/07/01 09:49:49;;;;;;;17.03;13.10;;;;;;;20.37;100.00;101786.17;1970991;72;31522;-73
2021/07/01 09:55:15;;;;;;;17.00;13.30;;;;;;;20.50;100.00;101790.85;1970712;72;31077;-72
2021/07/01 10:00:43;;;;;;;17.50;13.77;;;;;;;20.32;100.00;101788.56;1970609;73;31013;-72
2021/07/01 10:06:17;;;;;;;17.50;13.50;;;;;;;21.00;100.00;101787.00;1970399;73;31094;-72
2021/07/01 10:11:42;;;;;;;14.50;12.00;;;;;;;21.01;100.00;101784.40;1970563;72;31031;-73
2021/07/01 10:17:12;;;;;;;16.03;11.67;;;;;;;21.17;100.00;101776.30;1970387;72;31128;-73
2021/07/01 10:22:40;;;;;;;13.20;11.83;;;;;;;21.22;100.00;101777.55;1970612;72;31098;-73
2021/07/01 10:28:15;;;;;;;15.93;14.23;;;;;;;21.10;100.00;101790.05;1970536;73;31097;-73
2021/07/01 10:33:49;;;;;;;16.20;12.90;;;;;;;21.28;100.00;101781.26;1970293;73;31039;-73
2021/07/01 10:39:18;;;;;;;14.10;12.33;;;;;;;21.61;100.00;101790.56;1970484;72;31003;-75
2021/07/01 10:44:45;;;;;;;12.90;11.00;;;;;;;21.62;100.00;101790.24;1970298;73;31061;-71
2021/07/01 10:50:30;;;;;;;13.25;11.95;;;;;;;21.61;100.00;101788.58;1970575;72;30953;-73
2021/07/01 10:55:55;;;;;;;15.30;12.70;;;;;;;21.59;100.00;101777.37;1970634;73;31480;-73
2021/07/01 11:01:43;;;;;;;13.87;12.37;;;;;;;21.78;100.00;101770.72;1946294;74;31535;-73
2021/07/01 11:07:09;;;;;;;9.23;8.23;;;;;;;21.81;100.00;101770.05;1970670;72;31140;-74
2021/07/01 11:12:45;;;;;;;17.90;13.25;;;;;;;21.64;100.00;101764.47;1970483;73;30975;-73
2021/07/01 11:18:10;;;;;;;15.48;13.85;;;;;;;21.68;100.00;101767.70;1970705;73;31080;-73
2021/07/01 11:23:36;;;;;;;16.50;14.77;;;;;;;21.68;100.00;101769.69;1970612;73;31048;-73
2021/07/01 11:26:23;;;;;;;15.20;13.57;;;;;;;21.69;100.00;101770.74;1945969;74;24698;-72
2021/07/01 11:31:51;;;;;;;13.97;12.27;;;;;;;21.85;100.00;101771.62;1970561;72;31014;-73
2021/07/01 11:37:18;;;;;;;15.67;13.20;;;;;;;21.86;100.00;101774.12;1970610;72;31509;-73
2021/07/01 11:42:43;;;;;;;15.93;14.00;;;;;;;22.08;100.00;101775.27;1970673;73;31451;-72
2021/07/01 11:48:09;;;;;;;9.23;7.93;;;;;;;22.39;100.00;101771.27;1970729;73;31049;-73
2021/07/01 11:53:35;;;;;;;11.30;9.70;;;;;;;22.00;100.00;101776.73;1970724;73;31519;-73
2021/07/01 11:58:59;;;;;;;14.00;12.50;;;;;;;21.87;100.00;101766.44;1970605;72;31049;-73
2021/07/01 12:04:32;;;;;;;13.40;12.00;;;;;;;22.15;100.00;101765.69;1970577;72;31017;-73
2021/07/01 12:10:04;;;;;;;13.80;12.40;;;;;;;22.33;100.00;101761.33;1970566;72;31017;-72
2021/07/01 12:15:29;;;;;;;12.90;11.60;;;;;;;22.39;100.00;101759.36;1970630;72;31465;-73
2021/07/01 12:20:55;;;;;;;15.05;12.20;;;;;;;22.45;100.00;101751.50;1965465;71;31163;-73
2021/07/01 12:26:38;;;;;;;13.10;11.70;;;;;;;22.41;100.00;101753.37;1970379;72;31123;-73
2021/07/01 12:32:23;;;;;;;11.08;9.98;;;;;;;21.86;100.00;101761.39;1970734;72;31519;-73
2021/07/01 12:38:10;;;;;;;11.87;10.63;;;;;;;21.50;100.00;101759.02;1970251;72;31463;-73
2021/07/01 12:44:02;;;;;;;11.13;10.07;;;;;;;21.36;100.00;101759.79;1970501;72;31157;-73
2021/07/01 12:50:06;;;;;;;11.55;10.35;;;;;;;21.55;100.00;101759.42;1970576;72;31460;-73
2021/07/01 12:55:40;;;;;;;12.73;11.33;;;;;;;21.54;100.00;101751.52;1970464;72;30947;-73
2021/07/01 13:01:04;;;;;;;13.67;11.70;;;;;;;21.80;100.00;101754.25;1970574;72;31444;-74
2021/07/01 13:06:29;;;;;;;12.13;9.88;;;;;;;21.97;100.00;101753.37;1970610;73;31055;-72
2021/07/01 13:11:54;;;;;;;11.12;10.08;;;;;;;21.92;100.00;101761.45;1970467;72;30952;-72
2021/07/01 13:17:20;;;;;;;12.43;11.20;;;;;;;21.93;100.00;101757.47;1970596;72;30945;-73
2021/07/01 13:22:47;;;;;;;13.00;11.65;;;;;;;22.03;100.00;101748.61;1970735;73;31499;-72
2021/07/01 13:28:13;;;;;;;13.30;11.03;;;;;;;22.04;100.00;101753.07;1970596;73;30949;-72
2021/07/01 13:33:43;;;;;;;12.93;11.38;;;;;;;22.02;100.00;101754.59;1970769;72;30961;-71
2021/07/01 13:39:09;;;;;;;11.93;10.72;;;;;;;21.98;100.00;101754.45;1970645;72;31079;-73
2021/07/01 13:44:33;;;;;;;11.45;10.35;;;;;;;22.15;100.00;101743.62;1970763;72;31460;-73
2021/07/01 13:49:58;;;;;;;11.48;9.88;;;;;;;22.18;100.00;101742.93;1970450;73;31502;-73
2021/07/01 13:55:26;;;;;;;12.25;10.72;;;;;;;22.24;100.00;101745.23;1970705;72;31477;-74
2021/07/01 14:00:53;;;;;;;10.85;9.78;;;;;;;22.43;100.00;101744.76;1970473;73;31023;-74
2021/07/01 14:06:18;;;;;;;12.03;10.90;;;;;;;22.46;100.00;101736.98;1970715;73;31546;-74
2021/07/01 14:11:46;;;;;;;13.77;12.37;;;;;;;22.46;100.00;101735.56;1970958;72;31579;-73
2021/07/01 14:17:10;;;;;;;12.13;10.53;;;;;;;22.48;100.00;101733.82;1970807;72;31014;-74
2021/07/01 14:22:40;;;;;;;14.75;12.35;;;;;;;22.46;100.00;101739.81;1935842;73;31136;-73
2021/07/01 14:28:16;;;;;;;13.93;11.83;;;;;;;22.60;100.00;101733.89;1970826;72;31500;-74
2021/07/01 14:33:46;;;;;;;16.62;13.00;;;;;;;22.68;100.00;101735.23;1970555;72;30965;-74
2021/07/01 14:39:16;;;;;;;12.37;10.78;;;;;;;22.62;100.00;101730.14;1970654;72;31466;-73
2021/07/01 14:44:41;;;;;;;11.85;10.45;;;;;;;22.45;100.00;101727.44;1970832;73;31027;-73
2021/07/01 14:50:21;;;;;;;11.57;10.28;;;;;;;22.49;100.00;101720.74;1970643;73;31636;-74
2021/07/01 14:55:45;;;;;;;11.15;9.53;;;;;;;22.42;100.00;101726.72;1970798;72;31606;-73
2021/07/01 15:01:14;;;;;;;11.78;9.70;;;;;;;22.48;100.00;101721.91;1970406;73;30984;-73
2021/07/01 15:06:38;;;;;;;11.88;9.28;;;;;;;22.60;100.00;101706.98;1970595;73;30989;-73
2021/07/01 15:12:16;;;;;;;13.08;10.13;;;;;;;22.72;100.00;101699.19;1970789;72;31044;-73
2021/07/01 15:17:43;;;;;;;9.83;8.78;;;;;;;22.61;100.00;101700.98;1970744;73;31543;-73
2021/07/01 15:23:11;;;;;;;12.55;10.50;;;;;;;22.67;100.00;101700.19;1970609;73;31004;-73
2021/07/01 15:28:35;;;;;;;13.78;9.30;;;;;;;22.65;100.00;101695.45;1970683;72;31099;-73
2021/07/01 15:33:59;;;;;;;11.00;9.15;;;;;;;22.89;100.00;101694.78;1970530;72;30943;-73
2021/07/01 15:39:24;;;;;;;9.25;8.35;;;;;;;22.64;100.00;101687.53;1970506;72;31015;-74
2021/07/01 15:44:48;;;;;;;9.45;8.50;;;;;;;22.65;100.00;101682.13;1970796;73;31523;-73
2021/07/01 15:50:13;;;;;;;9.93;8.93;;;;;;;22.69;100.00;101688.78;1944639;74;31153;-73
2021/07/01 15:55:37;;;;;;;9.03;8.13;;;;;;;22.58;100.00;101685.28;1970798;73;31598;-73
2021/07/01 16:01:02;;;;;;;8.78;7.87;;;;;;;22.53;100.00;101676.40;1970470;72;31009;-73
2021/07/01 16:06:28;;;;;;;9.43;8.10;;;;;;;22.47;100.00;101690.52;1970707;72;31558;-73
2021/07/01 16:11:54;;;;;;;9.53;8.60;;;;;;;22.47;100.00;101693.34;1865374;77;31237;-70
2021/07/01 16:17:20;;;;;;;9.78;8.73;;;;;;;22.39;100.00;101695.66;1970732;72;31016;-70
2021/07/01 16:22:45;;;;;;;9.88;8.25;;;;;;;22.24;100.00;101699.12;1970579;72;31094;-72
2021/07/01 16:28:10;;;;;;;9.50;8.58;;;;;;;22.09;100.00;101687.80;1970841;72;30976;-71
2021/07/01 16:33:36;;;;;;;18.35;13.18;;;;;;;22.16;100.00;101697.17;1970465;72;31043;-74
2021/07/01 16:39:01;;;;;;;8.78;7.87;;;;;;;22.12;100.00;101681.44;1970526;72;30983;-72
2021/07/01 16:44:26;;;;;;;16.77;15.03;;;;;;;21.97;100.00;101687.71;1970762;73;30965;-71
2021/07/01 16:49:53;;;;;;;15.20;13.60;;;;;;;22.19;100.00;101673.84;1970430;72;30969;-73
2021/07/01 16:52:25;;;;;;;13.53;12.10;;;;;;;22.22;100.00;101677.39;1946184;74;24149;-74
2021/07/01 16:54:58;;;;;;;10.03;8.63;;;;;;;22.28;100.00;101680.27;1946073;74;24207;-74
2021/07/01 17:00:25;;;;;;;10.05;8.03;;;;;;;22.22;100.00;101671.73;1970574;73;31520;-71
2021/07/01 17:05:58;;;;;;;9.03;8.13;;;;;;;22.27;100.00;101663.03;1970666;72;32200;-74
2021/07/01 17:11:22;;;;;;;14.60;13.13;;;;;;;22.28;100.00;101663.87;1970463;73;31041;-73
2021/07/01 17:16:51;;;;;;;14.35;11.88;;;;;;;22.37;100.00;101657.55;1970704;72;31032;-74
2021/07/01 17:22:20;;;;;;;11.20;8.45;;;;;;;22.35;100.00;101664.14;1970487;71;31073;-73
2021/07/01 17:27:46;;;;;;;10.15;8.20;;;;;;;22.44;100.00;101660.06;1970743;72;31609;-73
2021/07/01 17:33:16;;;;;;;9.70;8.70;;;;;;;22.39;100.00;101670.77;1970397;73;31220;-73
2021/07/01 17:38:42;;;;;;;8.98;8.08;;;;;;;22.31;100.00;101668.83;1970402;72;30998;-71
2021/07/01 17:44:10;;;;;;;9.58;8.60;;;;;;;22.42;100.00;101657.36;1970232;72;30949;-72
2021/07/01 17:49:34;;;;;;;10.30;9.28;;;;;;;22.26;100.00;101662.78;1970570;72;31007;-73
2021/07/01 17:54:59;;;;;;;10.68;9.48;;;;;;;22.48;100.00;101649.70;1970643;72;30981;-73
2021/07/01 18:00:24;;;;;;;10.38;9.33;;;;;;;22.58;100.00;101645.05;1970494;72;31109;-72
2021/07/01 18:05:48;;;;;;;10.38;9.43;;;;;;;22.54;100.00;101643.25;1970373;73;30945;-73
2021/07/01 18:11:13;;;;;;;9.73;8.75;;;;;;;22.13;100.00;101648.31;1970396;73;31033;-75
2021/07/01 18:16:38;;;;;;;9.73;8.45;;;;;;;21.92;100.00;101651.67;1970930;72;31633;-72
2021/07/01 18:22:02;;;;;;;9.75;8.85;;;;;;;21.84;100.00;101647.73;1959772;71;30965;-71
2021/07/01 18:27:27;;;;;;;9.53;8.55;;;;;;;21.80;100.00;101642.52;1970849;72;31006;-72
2021/07/01 18:32:51;;;;;;;10.65;8.60;;;;;;;21.64;100.00;101647.95;1970893;72;31655;-72
2021/07/01 18:38:16;;;;;;;11.10;9.60;;;;;;;21.56;100.00;101643.16;1970834;72;31387;-72
2021/07/01 18:43:34;;;;;;;9.75;8.78;;;;;;;21.52;100.00;101639.95;1954136;73;30775;-72
2021/07/01 18:46:10;;;;;;;10.93;9.57;;;;;;;21.31;100.00;101648.32;1926714;74;24277;-73
2021/07/01 18:48:36;;;;;;;10.63;9.53;;;;;;;21.21;100.00;101646.72;1925739;74;24125;-73
2021/07/01 18:51:07;;;;;;;9.80;8.88;;;;;;;21.11;100.00;101654.11;1926973;74;24137;-77
2021/07/01 18:53:38;;;;;;;10.90;9.43;;;;;;;21.10;100.00;101653.85;1862347;76;24296;-74
2021/07/01 18:56:08;;;;;;;10.53;9.47;;;;;;;21.04;100.00;101657.20;1862212;77;24178;-73
2021/07/01 18:58:40;;;;;;;9.90;8.88;;;;;;;21.00;100.00;101654.81;1862084;77;24202;-73
2021/07/01 19:01:12;;;;;;;11.23;9.27;;;;;;;20.94;100.00;101651.33;1862137;76;24205;-73
2021/07/01 19:03:43;;;;;;;10.27;9.23;;;;;;;20.73;100.00;101654.02;1862171;77;24278;-73
2021/07/01 19:06:15;;;;;;;12.37;9.43;;;;;;;20.51;100.00;101648.56;1861992;76;24374;-72
2021/07/01 19:08:45;;;;;;;11.03;9.87;;;;;;;20.56;100.00;101655.45;1862133;77;24207;-74
2021/07/01 19:11:17;;;;;;;14.03;9.70;;;;;;;20.61;100.00;101646.82;1861972;77;24265;-72
2021/07/01 19:13:47;;;;;;;12.63;10.23;;;;;;;20.45;100.00;101652.12;1862028;77;24269;-73
2021/07/01 19:16:17;;;;;;;10.60;9.30;;;;;;;20.43;100.00;101658.70;1856329;77;24271;-74
2021/07/01 19:18:47;;;;;;;11.97;9.97;;;;;;;20.41;100.00;101663.83;1862473;77;24759;-72
2021/07/01 19:21:17;;;;;;;12.87;9.53;;;;;;;20.33;100.00;101661.84;1860636;76;24678;-74
2021/07/01 19:23:47;;;;;;;10.80;9.70;;;;;;;20.22;100.00;101660.48;1859071;77;24454;-72
2021/07/01 19:26:18;;;;;;;10.20;9.13;;;;;;;20.01;100.00;101663.69;1858979;77;24195;-74
2021/07/01 19:28:48;;;;;;;11.90;9.93;;;;;;;20.13;100.00;101670.09;1859031;77;24581;-74
2021/07/01 19:31:18;;;;;;;12.67;10.40;;;;;;;19.95;100.00;101674.29;1858932;77;24212;-74
2021/07/01 19:33:49;;;;;;;10.60;9.53;;;;;;;19.96;100.00;101671.73;1858152;77;24343;-72
2021/07/01 19:36:19;;;;;;;10.87;9.63;;;;;;;19.91;100.00;101666.23;1858264;77;24134;-72
2021/07/01 19:41:48;;;;;;;10.70;9.60;;;;;;;19.84;100.00;101665.91;1970827;72;33510;-73
2021/07/01 19:47:14;;;;;;;11.73;10.50;;;;;;;19.53;100.00;101672.17;1970830;73;31053;-72
2021/07/01 19:52:39;;;;;;;13.73;10.27;;;;;;;19.49;100.00;101666.36;1970989;72;31581;-73
2021/07/01 19:58:07;;;;;;;11.80;10.53;;;;;;;19.27;100.00;101674.84;1970768;73;30943;-74
2021/07/01 20:03:32;;;;;;;11.67;10.27;;;;;;;19.20;100.00;101681.53;1970503;73;31005;-73
2021/07/01 20:08:58;;;;;;;12.20;10.43;;;;;;;18.99;100.00;101684.06;1970750;72;31069;-74
2021/07/01 20:14:22;;;;;;;11.27;10.07;;;;;;;18.98;100.00;101683.80;1970691;73;32297;-73
2021/07/01 20:19:46;;;;;;;13.77;10.73;;;;;;;18.83;100.00;101677.72;1970622;73;31054;-74
2021/07/01 20:25:12;;;;;;;11.20;10.10;;;;;;;18.72;100.00;101680.55;1970762;72;31024;-70
2021/07/01 20:30:36;;;;;;;12.20;10.73;;;;;;;18.72;100.00;101691.80;1970697;73;31539;-72
2021/07/01 20:36:01;;;;;;;13.90;10.80;;;;;;;18.53;100.00;101698.44;1970609;73;31106;-71
2021/07/01 20:41:26;;;;;;;13.83;11.03;;;;;;;18.65;100.00;101707.14;1970597;72;30998;-71
2021/07/01 20:46:51;;;;;;;12.80;11.50;;;;;;;18.57;100.00;101702.84;1970745;73;33002;-76
2021/07/01 20:52:18;;;;;;;12.97;11.67;;;;;;;18.63;100.00;101712.84;1970580;72;31068;-75
2021/07/01 20:57:45;;;;;;;13.90;11.77;;;;;;;18.53;100.00;101711.66;1970638;73;31123;-75
2021/07/01 21:03:11;;;;;;;14.30;12.63;;;;;;;18.48;100.00;101718.81;1971180;72;31079;-76
2021/07/01 21:08:38;;;;;;;12.10;10.87;;;;;;;18.60;100.00;101713.48;1970762;73;31557;-74
2021/07/01 21:14:05;;;;;;;12.33;11.07;;;;;;;18.70;100.00;101714.63;1970360;73;30964;-74
2021/07/01 21:19:35;;;;;;;12.40;11.10;;;;;;;18.69;100.00;101712.98;1970439;73;31019;-73
2021/07/01 21:25:01;;;;;;;14.00;11.53;;;;;;;18.60;100.00;101714.89;1970827;72;31472;-72
2021/07/01 21:30:31;;;;;;;12.60;11.33;;;;;;;18.65;100.00;101714.78;1970614;73;31223;-73
2021/07/01 21:35:58;;;;;;;15.60;12.83;;;;;;;18.62;100.00;101710.59;1970795;72;31126;-72
2021/07/01 21:41:24;;;;;;;14.47;11.23;;;;;;;18.53;100.00;101712.50;1971126;72;31099;-72
2021/07/01 21:46:49;;;;;;;15.07;13.13;;;;;;;18.51;100.00;101718.17;1970712;73;31115;-73
2021/07/01 21:52:16;;;;;;;16.10;13.20;;;;;;;18.57;100.00;101714.10;1970670;73;31189;-72
2021/07/01 21:57:41;;;;;;;14.30;12.77;;;;;;;18.58;100.00;101716.61;1970528;72;31090;-73
2021/07/01 22:03:10;;;;;;;14.17;12.00;;;;;;;18.63;100.00;101710.86;1970564;73;31093;-73
2021/07/01 22:08:35;;;;;;;14.40;12.90;;;;;;;18.40;100.00;101723.80;1970749;73;31638;-72
2021/07/01 22:14:03;;;;;;;15.20;12.80;;;;;;;18.52;100.00;101716.49;1970788;72;31007;-73
2021/07/01 22:25:15;;;;;;;14.87;13.30;;;;;;;18.60;100.00;101725.58;1970826;72;31024;-74
2021/07/01 22:30:41;;;;;;;16.23;12.60;;;;;;;18.59;100.00;101714.63;1970785;72;31451;-75
2021/07/01 22:36:08;;;;;;;17.80;13.80;;;;;;;18.58;100.00;101717.18;1970563;72;31014;-72
2021/07/01 22:41:33;;;;;;;15.50;12.93;;;;;;;18.38;100.00;101717.06;1970703;73;31573;-73
2021/07/01 22:46:57;;;;;;;12.27;11.03;;;;;;;18.14;100.00;101718.71;1970803;72;30988;-73
2021/07/01 22:52:22;;;;;;;11.83;10.63;;;;;;;18.15;100.00;101720.95;1970740;73;31534;-72
2021/07/01 22:57:47;;;;;;;11.90;10.67;;;;;;;17.99;100.00;101718.23;1970662;72;31038;-72